Florissant, Missouri
Current Conditions -  °F | °C
As of 2:51 PM on Thursday 18 Dec 2014 (Local Time) from KSTL Reporting Station
Overcast Overcast  
Wind Chill: 36°   Ceiling: 1900
Heat Index: 36°   Visibility: 7mi
Dew Point: 26°   Wind: 0mph
Humidity: 67%   Direction: NA
Pressure: 30.23"   Gusts: NA
Location:  38.79°N, 90.32°W
Report Text: KSTL 182051Z 00000KT 7SM BKN019 OVC043 02/M03 A3023 RMK AO2 SLP246 60000 T00221033 56013
Loading
Personal Weather Stations






























Interactive Weather Map New forecast layout! Learn more

10-Day Weather Forecast

Advertisements
Track Severe Weather on mobile